Avon, Montana
Current Conditions -  °F | °C
As of 12:53 PM on Sunday 23 Nov 2014 (Local Time) from KHLN Reporting Station
Overcast Overcast  
Wind Chill: 37°   Ceiling: 5500
Heat Index: 40°   Visibility: 10mi
Dew Point: 19°   Wind: 5mph
Humidity: 43%   Direction: NA
Pressure: 29.98"   Gusts: NA
Location:  46.59°N, 112.61°W
Report Text: KHLN 231953Z VRB04KT 10SM OVC055 04/M07 A2998 RMK AO2 PK WND 31027/1906 SLP187 T00441072
Loading
Personal Weather Stations






























Interactive Weather Map New forecast layout! Learn more

10-Day Weather Forecast

Advertisements
Track Severe Weather on mobile